sensor_id;sensor_type;location;lat;lon;timestamp;P1;durP1;ratioP1;P2;durP2;ratioP2
40815;SDS011;26535;48.788;9.214;2022-08-24T05:04:04;6.53;;;4.55;;
40815;SDS011;26535;48.788;9.214;2022-08-24T05:06:31;6.20;;;4.13;;
40815;SDS011;26535;48.788;9.214;2022-08-24T05:08:58;6.18;;;4.07;;
40815;SDS011;26535;48.788;9.214;2022-08-24T05:11:25;10.18;;;4.95;;
40815;SDS011;26535;48.788;9.214;2022-08-24T05:13:52;6.03;;;4.65;;
40815;SDS011;26535;48.788;9.214;2022-08-24T05:16:18;6.75;;;4.80;;
40815;SDS011;26535;48.788;9.214;2022-08-24T05:18:45;8.98;;;4.97;;
40815;SDS011;26535;48.788;9.214;2022-08-24T05:21:12;9.23;;;4.50;;
40815;SDS011;26535;48.788;9.214;2022-08-24T05:23:42;5.70;;;4.07;;
40815;SDS011;26535;48.788;9.214;2022-08-24T05:26:10;6.90;;;4.53;;
40815;SDS011;26535;48.788;9.214;2022-08-24T05:28:38;5.43;;;4.13;;
40815;SDS011;26535;48.788;9.214;2022-08-24T05:31:19;6.93;;;4.13;;
40815;SDS011;26535;48.788;9.214;2022-08-24T05:33:54;7.20;;;4.40;;
40815;SDS011;26535;48.788;9.214;2022-08-24T05:36:25;7.85;;;4.22;;
40815;SDS011;26535;48.788;9.214;2022-08-24T05:38:57;6.78;;;4.10;;
40815;SDS011;26535;48.788;9.214;2022-08-24T05:41:27;6.70;;;4.47;;
40815;SDS011;26535;48.788;9.214;2022-08-24T05:43:59;7.03;;;4.57;;
40815;SDS011;26535;48.788;9.214;2022-08-24T05:46:27;9.68;;;5.18;;
40815;SDS011;26535;48.788;9.214;2022-08-24T05:48:56;5.20;;;4.00;;
40815;SDS011;26535;48.788;9.214;2022-08-24T05:51:31;7.70;;;4.10;;
40815;SDS011;26535;48.788;9.214;2022-08-24T05:54:06;6.47;;;4.38;;
40815;SDS011;26535;48.788;9.214;2022-08-24T05:56:49;10.93;;;4.63;;
40815;SDS011;26535;48.788;9.214;2022-08-24T05:59:19;6.30;;;4.07;;
40815;SDS011;26535;48.788;9.214;2022-08-24T06:01:50;7.53;;;4.47;;
40815;SDS011;26535;48.788;9.214;2022-08-24T06:04:22;7.68;;;4.72;;
40815;SDS011;26535;48.788;9.214;2022-08-24T06:06:47;6.97;;;4.20;;
40815;SDS011;26535;48.788;9.214;2022-08-24T06:09:16;10.02;;;4.25;;
40815;SDS011;26535;48.788;9.214;2022-08-24T06:11:43;7.10;;;4.47;;
40815;SDS011;26535;48.788;9.214;2022-08-24T06:14:12;8.65;;;4.78;;
40815;SDS011;26535;48.788;9.214;2022-08-24T06:16:55;10.10;;;4.97;;
40815;SDS011;26535;48.788;9.214;2022-08-24T06:19:23;9.45;;;5.10;;
40815;SDS011;26535;48.788;9.214;2022-08-24T06:21:52;7.53;;;5.00;;
40815;SDS011;26535;48.788;9.214;2022-08-24T06:24:20;8.25;;;5.35;;
40815;SDS011;26535;48.788;9.214;2022-08-24T06:27:10;14.23;;;5.55;;
40815;SDS011;26535;48.788;9.214;2022-08-24T06:29:57;8.90;;;5.20;;
40815;SDS011;26535;48.788;9.214;2022-08-24T06:32:44;10.25;;;5.57;;
40815;SDS011;26535;48.788;9.214;2022-08-24T06:35:24;13.85;;;6.07;;
40815;SDS011;26535;48.788;9.214;2022-08-24T06:37:49;8.88;;;5.15;;
40815;SDS011;26535;48.788;9.214;2022-08-24T06:40:15;10.45;;;5.88;;
40815;SDS011;26535;48.788;9.214;2022-08-24T06:42:46;11.52;;;5.55;;
40815;SDS011;26535;48.788;9.214;2022-08-24T06:45:21;9.90;;;5.82;;
40815;SDS011;26535;48.788;9.214;2022-08-24T06:47:52;11.88;;;5.10;;
40815;SDS011;26535;48.788;9.214;2022-08-24T06:50:18;9.43;;;4.57;;
40815;SDS011;26535;48.788;9.214;2022-08-24T06:52:45;10.30;;;5.10;;
40815;SDS011;26535;48.788;9.214;2022-08-24T06:55:11;9.88;;;4.88;;
40815;SDS011;26535;48.788;9.214;2022-08-24T06:57:37;11.65;;;5.00;;
40815;SDS011;26535;48.788;9.214;2022-08-24T07:00:09;12.27;;;5.20;;
40815;SDS011;26535;48.788;9.214;2022-08-24T07:02:40;7.35;;;4.85;;
40815;SDS011;26535;48.788;9.214;2022-08-24T07:05:06;10.05;;;5.18;;
40815;SDS011;26535;48.788;9.214;2022-08-24T07:07:43;7.70;;;5.07;;
40815;SDS011;26535;48.788;9.214;2022-08-24T07:10:09;9.98;;;5.40;;
40815;SDS011;26535;48.788;9.214;2022-08-24T07:12:35;6.95;;;4.53;;
40815;SDS011;26535;48.788;9.214;2022-08-24T07:15:05;8.70;;;4.75;;
40815;SDS011;26535;48.788;9.214;2022-08-24T07:17:31;13.68;;;5.15;;
40815;SDS011;26535;48.788;9.214;2022-08-24T07:19:57;9.85;;;5.70;;
40815;SDS011;26535;48.788;9.214;2022-08-24T07:22:43;10.68;;;5.00;;
40815;SDS011;26535;48.788;9.214;2022-08-24T07:25:10;9.95;;;4.90;;
40815;SDS011;26535;48.788;9.214;2022-08-24T07:27:36;10.65;;;5.38;;
40815;SDS011;26535;48.788;9.214;2022-08-24T07:30:06;9.18;;;4.88;;
40815;SDS011;26535;48.788;9.214;2022-08-24T07:32:34;9.13;;;4.95;;
40815;SDS011;26535;48.788;9.214;2022-08-24T07:35:00;9.65;;;5.03;;
40815;SDS011;26535;48.788;9.214;2022-08-24T07:37:26;9.13;;;4.60;;
40815;SDS011;26535;48.788;9.214;2022-08-24T07:39:52;9.82;;;4.93;;
40815;SDS011;26535;48.788;9.214;2022-08-24T07:42:22;9.60;;;4.38;;
40815;SDS011;26535;48.788;9.214;2022-08-24T07:44:48;8.07;;;4.40;;
40815;SDS011;26535;48.788;9.214;2022-08-24T07:47:17;8.82;;;4.65;;
40815;SDS011;26535;48.788;9.214;2022-08-24T07:49:50;7.75;;;4.25;;
40815;SDS011;26535;48.788;9.214;2022-08-24T07:52:16;11.90;;;4.28;;
40815;SDS011;26535;48.788;9.214;2022-08-24T07:54:43;9.13;;;3.75;;
40815;SDS011;26535;48.788;9.214;2022-08-24T07:57:12;7.07;;;3.55;;
40815;SDS011;26535;48.788;9.214;2022-08-24T07:59:44;8.38;;;3.28;;
40815;SDS011;26535;48.788;9.214;2022-08-24T08:02:12;5.65;;;2.90;;
40815;SDS011;26535;48.788;9.214;2022-08-24T08:04:44;6.25;;;2.65;;
40815;SDS011;26535;48.788;9.214;2022-08-24T08:07:09;4.15;;;2.50;;
40815;SDS011;26535;48.788;9.214;2022-08-24T08:09:43;5.20;;;3.00;;
40815;SDS011;26535;48.788;9.214;2022-08-24T08:12:18;4.70;;;2.70;;
40815;SDS011;26535;48.788;9.214;2022-08-24T08:14:53;6.95;;;2.88;;
40815;SDS011;26535;48.788;9.214;2022-08-24T08:20:00;4.32;;;2.70;;
40815;SDS011;26535;48.788;9.214;2022-08-24T08:22:29;6.85;;;3.00;;
40815;SDS011;26535;48.788;9.214;2022-08-24T08:25:32;7.63;;;2.70;;
40815;SDS011;26535;48.788;9.214;2022-08-24T08:28:04;7.63;;;2.78;;
40815;SDS011;26535;48.788;9.214;2022-08-24T08:30:31;6.47;;;2.55;;
40815;SDS011;26535;48.788;9.214;2022-08-24T08:32:59;6.70;;;2.83;;
40815;SDS011;26535;48.788;9.214;2022-08-24T08:35:39;5.57;;;2.55;;
40815;SDS011;26535;48.788;9.214;2022-08-24T08:38:06;4.45;;;2.38;;
40815;SDS011;26535;48.788;9.214;2022-08-24T08:43:05;18.70;;;3.38;;
40815;SDS011;26535;48.788;9.214;2022-08-24T08:57:08;8.50;;;2.38;;
40815;SDS011;26535;48.788;9.214;2022-08-24T08:59:57;4.32;;;2.28;;
40815;SDS011;26535;48.788;9.214;2022-08-24T09:10:53;5.22;;;1.85;;
40815;SDS011;26535;48.788;9.214;2022-08-24T09:13:33;8.10;;;2.05;;
40815;SDS011;26535;48.788;9.214;2022-08-24T09:16:36;10.98;;;1.85;;
40815;SDS011;26535;48.788;9.214;2022-08-24T09:30:25;4.07;;;1.17;;
40815;SDS011;26535;48.788;9.214;2022-08-24T09:33:23;2.67;;;1.13;;
40815;SDS011;26535;48.788;9.214;2022-08-24T09:36:09;4.47;;;1.85;;
40815;SDS011;26535;48.788;9.214;2022-08-24T10:01:56;4.75;;;1.10;;
40815;SDS011;26535;48.788;9.214;2022-08-24T10:05:17;2.92;;;1.08;;
40815;SDS011;26535;48.788;9.214;2022-08-24T10:25:10;2.53;;;1.25;;
40815;SDS011;26535;48.788;9.214;2022-08-24T10:50:58;2.38;;;1.17;;
40815;SDS011;26535;48.788;9.214;2022-08-24T10:53:51;3.42;;;1.45;;
40815;SDS011;26535;48.788;9.214;2022-08-24T10:56:19;2.50;;;1.48;;
40815;SDS011;26535;48.788;9.214;2022-08-24T10:59:23;8.80;;;1.30;;
40815;SDS011;26535;48.788;9.214;2022-08-24T11:02:08;6.10;;;1.38;;
40815;SDS011;26535;48.788;9.214;2022-08-24T11:04:54;3.38;;;1.20;;
40815;SDS011;26535;48.788;9.214;2022-08-24T11:07:22;8.95;;;1.73;;
40815;SDS011;26535;48.788;9.214;2022-08-24T11:12:21;11.52;;;1.40;;
40815;SDS011;26535;48.788;9.214;2022-08-24T11:14:50;3.05;;;1.08;;
40815;SDS011;26535;48.788;9.214;2022-08-24T11:17:20;1.88;;;1.20;;
40815;SDS011;26535;48.788;9.214;2022-08-24T11:19:49;3.00;;;0.88;;
40815;SDS011;26535;48.788;9.214;2022-08-24T11:22:26;4.25;;;1.10;;
40815;SDS011;26535;48.788;9.214;2022-08-24T11:25:03;1.92;;;0.80;;
40815;SDS011;26535;48.788;9.214;2022-08-24T11:27:44;3.88;;;0.90;;
40815;SDS011;26535;48.788;9.214;2022-08-24T11:30:21;1.95;;;0.88;;
40815;SDS011;26535;48.788;9.214;2022-08-24T11:33:03;4.60;;;0.90;;
40815;SDS011;26535;48.788;9.214;2022-08-24T11:35:35;3.83;;;0.90;;
40815;SDS011;26535;48.788;9.214;2022-08-24T11:38:23;2.53;;;0.80;;
40815;SDS011;26535;48.788;9.214;2022-08-24T11:41:17;2.20;;;0.90;;
40815;SDS011;26535;48.788;9.214;2022-08-24T11:46:41;2.40;;;1.00;;
40815;SDS011;26535;48.788;9.214;2022-08-24T11:52:14;2.90;;;0.80;;
40815;SDS011;26535;48.788;9.214;2022-08-24T11:55:06;2.07;;;0.70;;
40815;SDS011;26535;48.788;9.214;2022-08-24T11:57:46;2.05;;;0.85;;
40815;SDS011;26535;48.788;9.214;2022-08-24T12:00:20;1.65;;;0.70;;
40815;SDS011;26535;48.788;9.214;2022-08-24T12:14:29;1.83;;;0.70;;
40815;SDS011;26535;48.788;9.214;2022-08-24T12:20:30;2.35;;;0.70;;
40815;SDS011;26535;48.788;9.214;2022-08-24T12:23:01;3.75;;;0.80;;
40815;SDS011;26535;48.788;9.214;2022-08-24T12:25:32;2.45;;;0.70;;
40815;SDS011;26535;48.788;9.214;2022-08-24T12:28:20;1.40;;;0.80;;
40815;SDS011;26535;48.788;9.214;2022-08-24T12:30:58;3.00;;;0.70;;
40815;SDS011;26535;48.788;9.214;2022-08-24T12:33:42;2.38;;;0.80;;
40815;SDS011;26535;48.788;9.214;2022-08-24T12:36:17;2.30;;;1.20;;
40815;SDS011;26535;48.788;9.214;2022-08-24T12:38:52;3.80;;;0.80;;
40815;SDS011;26535;48.788;9.214;2022-08-24T12:41:32;3.33;;;1.25;;
40815;SDS011;26535;48.788;9.214;2022-08-24T12:44:08;3.75;;;0.85;;
40815;SDS011;26535;48.788;9.214;2022-08-24T12:46:37;2.22;;;0.88;;
40815;SDS011;26535;48.788;9.214;2022-08-24T12:49:05;1.73;;;0.97;;
40815;SDS011;26535;48.788;9.214;2022-08-24T12:58:07;2.53;;;0.70;;
40815;SDS011;26535;48.788;9.214;2022-08-24T13:00:43;3.70;;;0.80;;
40815;SDS011;26535;48.788;9.214;2022-08-24T13:03:24;2.78;;;0.70;;
40815;SDS011;26535;48.788;9.214;2022-08-24T13:05:56;3.40;;;0.85;;
40815;SDS011;26535;48.788;9.214;2022-08-24T13:08:35;2.88;;;0.75;;
40815;SDS011;26535;48.788;9.214;2022-08-24T13:11:14;1.85;;;1.02;;
40815;SDS011;26535;48.788;9.214;2022-08-24T13:19:37;1.83;;;0.50;;
40815;SDS011;26535;48.788;9.214;2022-08-24T13:29:38;1.77;;;0.63;;
40815;SDS011;26535;48.788;9.214;2022-08-24T13:32:21;3.33;;;0.73;;
40815;SDS011;26535;48.788;9.214;2022-08-24T13:35:06;1.35;;;0.60;;
40815;SDS011;26535;48.788;9.214;2022-08-24T13:44:24;3.08;;;0.88;;
40815;SDS011;26535;48.788;9.214;2022-08-24T13:47:09;2.60;;;0.70;;
40815;SDS011;26535;48.788;9.214;2022-08-24T13:49:45;1.33;;;0.60;;
40815;SDS011;26535;48.788;9.214;2022-08-24T13:52:23;1.50;;;0.68;;
40815;SDS011;26535;48.788;9.214;2022-08-24T13:57:51;2.42;;;0.63;;
40815;SDS011;26535;48.788;9.214;2022-08-24T14:00:39;1.33;;;0.70;;
40815;SDS011;26535;48.788;9.214;2022-08-24T14:05:48;2.97;;;0.93;;
40815;SDS011;26535;48.788;9.214;2022-08-24T14:08:24;1.80;;;0.75;;
40815;SDS011;26535;48.788;9.214;2022-08-24T14:11:17;2.55;;;0.70;;
40815;SDS011;26535;48.788;9.214;2022-08-24T14:20:29;2.55;;;0.77;;
40815;SDS011;26535;48.788;9.214;2022-08-24T14:39:52;2.20;;;0.87;;
40815;SDS011;26535;48.788;9.214;2022-08-24T14:45:10;1.75;;;0.70;;
40815;SDS011;26535;48.788;9.214;2022-08-24T14:50:57;1.98;;;0.75;;
40815;SDS011;26535;48.788;9.214;2022-08-24T14:54:01;1.25;;;0.73;;
40815;SDS011;26535;48.788;9.214;2022-08-24T14:59:44;1.20;;;0.70;;
40815;SDS011;26535;48.788;9.214;2022-08-24T15:04:51;2.90;;;0.90;;
40815;SDS011;26535;48.788;9.214;2022-08-24T15:07:29;1.30;;;0.68;;
40815;SDS011;26535;48.788;9.214;2022-08-24T15:10:02;1.95;;;0.80;;
40815;SDS011;26535;48.788;9.214;2022-08-24T15:12:50;2.22;;;0.90;;
40815;SDS011;26535;48.788;9.214;2022-08-24T15:18:24;3.78;;;0.90;;
40815;SDS011;26535;48.788;9.214;2022-08-24T15:24:06;2.10;;;0.60;;
40815;SDS011;26535;48.788;9.214;2022-08-24T15:29:19;2.45;;;0.90;;
40815;SDS011;26535;48.788;9.214;2022-08-24T15:31:54;2.30;;;0.70;;
40815;SDS011;26535;48.788;9.214;2022-08-24T15:37:32;1.45;;;0.85;;
40815;SDS011;26535;48.788;9.214;2022-08-24T15:40:02;1.77;;;0.93;;
40815;SDS011;26535;48.788;9.214;2022-08-24T15:42:39;1.58;;;0.80;;
40815;SDS011;26535;48.788;9.214;2022-08-24T15:45:06;1.40;;;0.75;;
40815;SDS011;26535;48.788;9.214;2022-08-24T15:47:34;2.35;;;0.93;;
40815;SDS011;26535;48.788;9.214;2022-08-24T15:50:07;1.33;;;0.77;;
40815;SDS011;26535;48.788;9.214;2022-08-24T15:53:04;1.75;;;0.80;;
40815;SDS011;26535;48.788;9.214;2022-08-24T15:55:50;3.42;;;1.00;;
40815;SDS011;26535;48.788;9.214;2022-08-24T15:58:32;1.77;;;0.85;;
40815;SDS011;26535;48.788;9.214;2022-08-24T16:01:17;1.52;;;0.80;;
40815;SDS011;26535;48.788;9.214;2022-08-24T16:04:14;1.55;;;0.70;;
40815;SDS011;26535;48.788;9.214;2022-08-24T16:07:20;1.63;;;0.70;;
40815;SDS011;26535;48.788;9.214;2022-08-24T16:09:48;2.60;;;0.73;;
40815;SDS011;26535;48.788;9.214;2022-08-24T16:12:44;2.10;;;0.60;;
40815;SDS011;26535;48.788;9.214;2022-08-24T16:15:15;2.13;;;0.70;;
40815;SDS011;26535;48.788;9.214;2022-08-24T16:17:50;1.40;;;0.70;;
40815;SDS011;26535;48.788;9.214;2022-08-24T16:22:50;2.45;;;0.90;;
40815;SDS011;26535;48.788;9.214;2022-08-24T16:28:09;1.40;;;0.80;;
40815;SDS011;26535;48.788;9.214;2022-08-24T16:30:57;3.20;;;1.00;;
40815;SDS011;26535;48.788;9.214;2022-08-24T16:36:09;1.90;;;0.70;;
40815;SDS011;26535;48.788;9.214;2022-08-24T16:38:38;3.70;;;1.40;;
40815;SDS011;26535;48.788;9.214;2022-08-24T16:41:06;4.32;;;1.10;;
40815;SDS011;26535;48.788;9.214;2022-08-24T16:43:34;2.40;;;0.90;;
40815;SDS011;26535;48.788;9.214;2022-08-24T16:46:03;2.60;;;0.88;;
40815;SDS011;26535;48.788;9.214;2022-08-24T16:48:30;1.95;;;0.77;;
40815;SDS011;26535;48.788;9.214;2022-08-24T16:50:56;1.58;;;0.90;;
40815;SDS011;26535;48.788;9.214;2022-08-24T16:53:22;1.40;;;0.70;;
40815;SDS011;26535;48.788;9.214;2022-08-24T16:55:48;3.05;;;0.80;;
40815;SDS011;26535;48.788;9.214;2022-08-24T16:58:15;1.50;;;0.80;;
40815;SDS011;26535;48.788;9.214;2022-08-24T17:00:42;2.63;;;1.00;;
40815;SDS011;26535;48.788;9.214;2022-08-24T17:03:10;2.90;;;0.90;;
40815;SDS011;26535;48.788;9.214;2022-08-24T17:05:36;1.70;;;0.80;;
40815;SDS011;26535;48.788;9.214;2022-08-24T17:08:02;2.13;;;1.10;;
40815;SDS011;26535;48.788;9.214;2022-08-24T17:10:29;1.92;;;1.27;;
40815;SDS011;26535;48.788;9.214;2022-08-24T17:12:56;2.97;;;1.00;;
40815;SDS011;26535;48.788;9.214;2022-08-24T17:15:22;2.38;;;1.00;;
40815;SDS011;26535;48.788;9.214;2022-08-24T17:17:57;2.45;;;1.08;;
40815;SDS011;26535;48.788;9.214;2022-08-24T17:20:27;3.33;;;1.00;;
40815;SDS011;26535;48.788;9.214;2022-08-24T17:22:53;3.55;;;1.02;;
40815;SDS011;26535;48.788;9.214;2022-08-24T17:25:20;5.03;;;1.15;;
40815;SDS011;26535;48.788;9.214;2022-08-24T17:27:47;2.60;;;0.90;;
40815;SDS011;26535;48.788;9.214;2022-08-24T17:30:13;3.28;;;1.10;;
40815;SDS011;26535;48.788;9.214;2022-08-24T17:32:41;2.17;;;1.02;;
40815;SDS011;26535;48.788;9.214;2022-08-24T17:35:07;2.95;;;1.40;;
40815;SDS011;26535;48.788;9.214;2022-08-24T17:37:34;3.47;;;1.63;;
40815;SDS011;26535;48.788;9.214;2022-08-24T17:40:01;2.72;;;1.20;;
40815;SDS011;26535;48.788;9.214;2022-08-24T17:42:28;3.13;;;1.15;;
40815;SDS011;26535;48.788;9.214;2022-08-24T17:44:54;3.08;;;1.75;;
40815;SDS011;26535;48.788;9.214;2022-08-24T17:47:20;3.45;;;1.50;;
40815;SDS011;26535;48.788;9.214;2022-08-24T17:49:46;3.38;;;1.88;;
40815;SDS011;26535;48.788;9.214;2022-08-24T17:52:12;4.35;;;1.52;;
40815;SDS011;26535;48.788;9.214;2022-08-24T17:54:38;3.28;;;1.35;;
40815;SDS011;26535;48.788;9.214;2022-08-24T17:57:04;2.28;;;1.50;;
40815;SDS011;26535;48.788;9.214;2022-08-24T17:59:31;3.33;;;1.70;;
40815;SDS011;26535;48.788;9.214;2022-08-24T18:02:03;2.55;;;1.50;;
40815;SDS011;26535;48.788;9.214;2022-08-24T18:04:32;3.95;;;1.40;;
40815;SDS011;26535;48.788;9.214;2022-08-24T18:07:00;4.28;;;1.75;;
40815;SDS011;26535;48.788;9.214;2022-08-24T18:09:39;3.55;;;1.30;;
40815;SDS011;26535;48.788;9.214;2022-08-24T18:12:32;3.53;;;1.40;;
40815;SDS011;26535;48.788;9.214;2022-08-24T18:14:57;4.10;;;1.58;;
40815;SDS011;26535;48.788;9.214;2022-08-24T18:19:56;4.05;;;1.70;;
40815;SDS011;26535;48.788;9.214;2022-08-24T18:22:22;4.75;;;1.90;;
40815;SDS011;26535;48.788;9.214;2022-08-24T18:24:48;3.38;;;2.00;;
40815;SDS011;26535;48.788;9.214;2022-08-24T18:27:18;5.50;;;1.90;;
40815;SDS011;26535;48.788;9.214;2022-08-24T18:29:47;3.60;;;1.73;;
40815;SDS011;26535;48.788;9.214;2022-08-24T18:32:14;4.18;;;2.00;;
40815;SDS011;26535;48.788;9.214;2022-08-24T18:34:40;4.55;;;1.85;;
40815;SDS011;26535;48.788;9.214;2022-08-24T18:37:06;4.45;;;2.03;;
40815;SDS011;26535;48.788;9.214;2022-08-24T18:39:32;3.92;;;1.80;;
40815;SDS011;26535;48.788;9.214;2022-08-24T18:41:58;4.78;;;1.98;;
40815;SDS011;26535;48.788;9.214;2022-08-24T18:44:25;2.95;;;1.75;;
40815;SDS011;26535;48.788;9.214;2022-08-24T18:46:51;3.53;;;1.70;;
40815;SDS011;26535;48.788;9.214;2022-08-24T18:49:17;3.75;;;2.00;;
40815;SDS011;26535;48.788;9.214;2022-08-24T18:51:44;5.10;;;1.85;;
40815;SDS011;26535;48.788;9.214;2022-08-24T18:54:25;2.97;;;1.70;;
40815;SDS011;26535;48.788;9.214;2022-08-24T18:56:56;3.92;;;1.83;;
40815;SDS011;26535;48.788;9.214;2022-08-24T18:59:22;3.25;;;1.85;;
40815;SDS011;26535;48.788;9.214;2022-08-24T19:01:48;4.00;;;2.00;;
40815;SDS011;26535;48.788;9.214;2022-08-24T19:04:36;2.85;;;1.60;;
40815;SDS011;26535;48.788;9.214;2022-08-24T19:07:08;4.07;;;2.13;;
40815;SDS011;26535;48.788;9.214;2022-08-24T19:09:34;3.70;;;1.75;;
40815;SDS011;26535;48.788;9.214;2022-08-24T19:11:59;3.78;;;1.98;;
40815;SDS011;26535;48.788;9.214;2022-08-24T19:14:26;3.65;;;2.00;;
40815;SDS011;26535;48.788;9.214;2022-08-24T19:16:52;3.72;;;1.95;;
40815;SDS011;26535;48.788;9.214;2022-08-24T19:19:18;3.53;;;1.92;;
40815;SDS011;26535;48.788;9.214;2022-08-24T19:21:44;3.13;;;1.80;;
40815;SDS011;26535;48.788;9.214;2022-08-24T19:24:10;3.00;;;1.80;;
40815;SDS011;26535;48.788;9.214;2022-08-24T19:26:36;4.30;;;1.92;;
40815;SDS011;26535;48.788;9.214;2022-08-24T19:29:02;2.45;;;1.65;;
40815;SDS011;26535;48.788;9.214;2022-08-24T19:31:28;3.17;;;1.80;;
40815;SDS011;26535;48.788;9.214;2022-08-24T19:33:57;2.70;;;1.80;;
40815;SDS011;26535;48.788;9.214;2022-08-24T19:36:25;3.42;;;1.90;;
40815;SDS011;26535;48.788;9.214;2022-08-24T19:38:51;3.00;;;1.70;;
40815;SDS011;26535;48.788;9.214;2022-08-24T19:41:17;3.40;;;1.83;;
40815;SDS011;26535;48.788;9.214;2022-08-24T19:43:44;3.47;;;1.95;;
40815;SDS011;26535;48.788;9.214;2022-08-24T19:46:32;3.85;;;1.80;;
40815;SDS011;26535;48.788;9.214;2022-08-24T19:48:58;3.80;;;2.15;;
40815;SDS011;26535;48.788;9.214;2022-08-24T19:51:24;5.65;;;2.40;;
40815;SDS011;26535;48.788;9.214;2022-08-24T19:53:51;3.25;;;2.28;;
40815;SDS011;26535;48.788;9.214;2022-08-24T19:56:16;4.85;;;2.10;;
40815;SDS011;26535;48.788;9.214;2022-08-24T20:01:21;4.68;;;2.40;;
40815;SDS011;26535;48.788;9.214;2022-08-24T20:03:49;4.53;;;2.10;;
40815;SDS011;26535;48.788;9.214;2022-08-24T20:06:16;7.00;;;2.90;;
40815;SDS011;26535;48.788;9.214;2022-08-24T20:08:45;5.47;;;2.88;;
40815;SDS011;26535;48.788;9.214;2022-08-24T20:11:12;5.63;;;2.92;;
40815;SDS011;26535;48.788;9.214;2022-08-24T20:13:37;6.60;;;3.40;;
40815;SDS011;26535;48.788;9.214;2022-08-24T20:16:07;6.07;;;2.78;;
40815;SDS011;26535;48.788;9.214;2022-08-24T20:18:34;4.25;;;2.42;;
40815;SDS011;26535;48.788;9.214;2022-08-24T20:21:00;7.25;;;2.63;;
40815;SDS011;26535;48.788;9.214;2022-08-24T20:23:27;4.90;;;2.20;;
40815;SDS011;26535;48.788;9.214;2022-08-24T20:25:54;5.03;;;2.35;;
40815;SDS011;26535;48.788;9.214;2022-08-24T20:28:21;3.13;;;2.25;;
40815;SDS011;26535;48.788;9.214;2022-08-24T20:30:51;5.18;;;2.10;;
40815;SDS011;26535;48.788;9.214;2022-08-24T20:33:17;3.10;;;1.85;;
40815;SDS011;26535;48.788;9.214;2022-08-24T20:35:48;3.35;;;1.92;;
40815;SDS011;26535;48.788;9.214;2022-08-24T20:38:16;3.53;;;2.05;;
40815;SDS011;26535;48.788;9.214;2022-08-24T20:40:44;3.42;;;1.90;;
40815;SDS011;26535;48.788;9.214;2022-08-24T20:43:10;2.70;;;1.60;;
40815;SDS011;26535;48.788;9.214;2022-08-24T20:45:36;3.70;;;1.52;;
40815;SDS011;26535;48.788;9.214;2022-08-24T20:48:02;2.70;;;1.42;;
40815;SDS011;26535;48.788;9.214;2022-08-24T20:50:29;2.20;;;1.50;;
40815;SDS011;26535;48.788;9.214;2022-08-24T20:52:55;3.38;;;2.08;;
40815;SDS011;26535;48.788;9.214;2022-08-24T20:55:21;2.67;;;1.80;;
40815;SDS011;26535;48.788;9.214;2022-08-24T20:57:49;3.60;;;1.77;;
40815;SDS011;26535;48.788;9.214;2022-08-24T21:00:19;2.88;;;1.77;;
40815;SDS011;26535;48.788;9.214;2022-08-24T21:02:46;2.80;;;1.80;;
40815;SDS011;26535;48.788;9.214;2022-08-24T21:05:12;3.78;;;2.00;;
40815;SDS011;26535;48.788;9.214;2022-08-24T21:07:38;3.88;;;2.00;;
40815;SDS011;26535;48.788;9.214;2022-08-24T21:10:12;4.10;;;2.08;;
40815;SDS011;26535;48.788;9.214;2022-08-24T21:12:37;5.85;;;2.08;;
40815;SDS011;26535;48.788;9.214;2022-08-24T21:15:04;5.60;;;2.20;;
40815;SDS011;26535;48.788;9.214;2022-08-24T21:17:30;4.13;;;2.22;;
40815;SDS011;26535;48.788;9.214;2022-08-24T21:19:56;5.05;;;2.20;;
40815;SDS011;26535;48.788;9.214;2022-08-24T21:22:22;5.60;;;2.40;;
40815;SDS011;26535;48.788;9.214;2022-08-24T21:24:48;4.72;;;2.60;;
40815;SDS011;26535;48.788;9.214;2022-08-24T21:27:13;6.70;;;2.80;;
40815;SDS011;26535;48.788;9.214;2022-08-24T21:29:41;3.90;;;2.25;;
40815;SDS011;26535;48.788;9.214;2022-08-24T21:32:06;4.13;;;1.88;;
40815;SDS011;26535;48.788;9.214;2022-08-24T21:34:51;4.13;;;2.05;;
40815;SDS011;26535;48.788;9.214;2022-08-24T21:37:17;3.85;;;2.20;;
40815;SDS011;26535;48.788;9.214;2022-08-24T21:39:44;4.15;;;2.55;;
40815;SDS011;26535;48.788;9.214;2022-08-24T21:42:11;4.05;;;2.15;;
40815;SDS011;26535;48.788;9.214;2022-08-24T21:44:37;4.65;;;2.50;;
40815;SDS011;26535;48.788;9.214;2022-08-24T21:47:04;5.50;;;2.83;;
40815;SDS011;26535;48.788;9.214;2022-08-24T21:49:30;4.90;;;2.63;;
40815;SDS011;26535;48.788;9.214;2022-08-24T21:51:57;5.93;;;3.08;;
40815;SDS011;26535;48.788;9.214;2022-08-24T21:54:23;5.72;;;3.17;;
40815;SDS011;26535;48.788;9.214;2022-08-24T21:56:50;5.60;;;3.15;;
40815;SDS011;26535;48.788;9.214;2022-08-24T21:59:17;6.70;;;2.70;;
40815;SDS011;26535;48.788;9.214;2022-08-24T22:01:43;4.85;;;2.90;;
40815;SDS011;26535;48.788;9.214;2022-08-24T22:04:09;4.57;;;2.50;;
40815;SDS011;26535;48.788;9.214;2022-08-24T22:06:35;5.00;;;2.63;;
40815;SDS011;26535;48.788;9.214;2022-08-24T22:09:01;4.68;;;2.80;;
40815;SDS011;26535;48.788;9.214;2022-08-24T22:11:27;6.95;;;3.03;;
40815;SDS011;26535;48.788;9.214;2022-08-24T22:13:54;4.80;;;2.92;;
40815;SDS011;26535;48.788;9.214;2022-08-24T22:16:21;5.35;;;3.03;;
40815;SDS011;26535;48.788;9.214;2022-08-24T22:18:47;4.13;;;2.80;;
40815;SDS011;26535;48.788;9.214;2022-08-24T22:21:17;5.00;;;3.13;;
40815;SDS011;26535;48.788;9.214;2022-08-24T22:23:45;8.23;;;3.17;;
40815;SDS011;26535;48.788;9.214;2022-08-24T22:26:11;4.47;;;2.95;;
40815;SDS011;26535;48.788;9.214;2022-08-24T22:28:37;5.22;;;3.10;;
40815;SDS011;26535;48.788;9.214;2022-08-24T22:31:14;4.87;;;3.00;;
40815;SDS011;26535;48.788;9.214;2022-08-24T22:34:00;6.10;;;2.60;;
40815;SDS011;26535;48.788;9.214;2022-08-24T22:36:28;5.35;;;2.60;;
40815;SDS011;26535;48.788;9.214;2022-08-24T22:38:55;4.57;;;2.60;;
40815;SDS011;26535;48.788;9.214;2022-08-24T22:41:23;6.18;;;2.90;;
40815;SDS011;26535;48.788;9.214;2022-08-24T22:43:49;5.22;;;2.95;;
40815;SDS011;26535;48.788;9.214;2022-08-24T22:46:34;3.95;;;2.65;;
40815;SDS011;26535;48.788;9.214;2022-08-24T22:49:00;5.38;;;3.00;;
40815;SDS011;26535;48.788;9.214;2022-08-24T22:51:28;5.05;;;2.63;;
40815;SDS011;26535;48.788;9.214;2022-08-24T22:53:54;6.13;;;2.95;;
40815;SDS011;26535;48.788;9.214;2022-08-24T22:56:25;4.78;;;2.78;;
40815;SDS011;26535;48.788;9.214;2022-08-24T22:58:53;6.88;;;3.03;;
